Manfred, North Dakota
Current Conditions -  °F | °C
As of 1:55 PM on Thursday 30 Oct 2014 (Local Time) from K5H4 Reporting Station
Overcast Overcast  
Wind Chill: 22°   Ceiling: 1900
Heat Index: 32°   Visibility: 10mi
Dew Point: 27°   Wind: 15mph
Humidity: 80%   Direction: 30°NNE
Pressure: 30.42"   Gusts: NA
Location:  47.7822°N, 99.8441°W
Report Text: K5H4 301855Z AUTO 03013KT 10SM OVC019 00/M03 A3042 RMK AO2
Loading
Personal Weather Stations






























Interactive Weather Map
Tropical Storm Tracking
New forecast layout! Learn more

10-Day Weather Forecast

Advertisements
Track Severe Weather on mobile